createdAt,value
2023-02-19T00:01:19.628Z,3.38
2023-02-19T00:04:02.660Z,2.17
2023-02-19T00:06:30.469Z,1.95
2023-02-19T00:08:57.139Z,2.47
2023-02-19T00:11:25.110Z,3.08
2023-02-19T00:13:52.553Z,2.05
2023-02-19T00:16:18.855Z,3.30
2023-02-19T00:18:45.506Z,3.45
2023-02-19T00:21:12.528Z,2.80
2023-02-19T00:23:39.246Z,1.73
2023-02-19T00:26:17.509Z,3.00
2023-02-19T00:28:45.176Z,2.13
2023-02-19T00:31:19.314Z,4.78
2023-02-19T00:33:46.213Z,2.65
2023-02-19T00:36:13.158Z,1.52
2023-02-19T00:38:39.998Z,2.65
2023-02-19T00:41:19.123Z,2.83
2023-02-19T00:43:45.522Z,7.35
2023-02-19T00:46:11.991Z,2.67
2023-02-19T00:48:38.382Z,2.45
2023-02-19T00:51:04.777Z,3.17
2023-02-19T00:53:31.238Z,3.53
2023-02-19T00:55:57.622Z,4.75
2023-02-19T00:58:23.990Z,1.77
2023-02-19T01:00:50.358Z,2.88
2023-02-19T01:03:16.672Z,2.20
2023-02-19T01:05:43.070Z,4.97
2023-02-19T01:08:09.475Z,3.08
2023-02-19T01:10:35.819Z,3.83
2023-02-19T01:13:02.215Z,4.35
2023-02-19T01:15:28.597Z,3.17
2023-02-19T01:17:55.028Z,2.60
2023-02-19T01:20:21.340Z,5.30
2023-02-19T01:22:47.633Z,2.35
2023-02-19T01:25:14.255Z,2.95
2023-02-19T01:27:40.583Z,2.63
2023-02-19T01:30:07.204Z,4.93
2023-02-19T01:32:33.587Z,4.78
2023-02-19T01:35:00.001Z,6.03
2023-02-19T01:37:26.469Z,11.20
2023-02-19T01:39:52.969Z,4.30
2023-02-19T01:42:20.093Z,4.85
2023-02-19T01:44:46.430Z,5.93
2023-02-19T01:47:13.863Z,7.05
2023-02-19T01:49:49.004Z,7.28
2023-02-19T01:52:22.157Z,6.75
2023-02-19T01:54:49.503Z,5.38
2023-02-19T01:57:21.563Z,5.75
2023-02-19T01:59:50.047Z,5.20
2023-02-19T02:02:16.450Z,4.93
2023-02-19T02:04:42.872Z,4.88
2023-02-19T02:07:29.250Z,6.00
2023-02-19T02:10:14.875Z,5.38
2023-02-19T02:12:41.269Z,5.00
2023-02-19T02:15:09.377Z,5.20
2023-02-19T02:17:54.718Z,5.80
2023-02-19T02:20:32.202Z,4.72
2023-02-19T02:23:04.457Z,3.58
2023-02-19T02:25:43.954Z,4.70
2023-02-19T02:28:19.815Z,4.50
2023-02-19T02:30:51.605Z,6.47
2023-02-19T02:33:39.644Z,4.70
2023-02-19T02:36:08.679Z,7.20
2023-02-19T02:38:39.535Z,5.68
2023-02-19T02:41:06.653Z,5.05
2023-02-19T02:43:33.366Z,5.25
2023-02-19T02:45:59.770Z,5.13
2023-02-19T02:48:38.917Z,3.95
2023-02-19T02:51:19.461Z,5.90
2023-02-19T02:54:04.772Z,6.68
2023-02-19T02:56:31.845Z,6.03
2023-02-19T02:58:59.093Z,4.53
2023-02-19T03:01:44.248Z,7.18
2023-02-19T03:04:15.890Z,4.50
2023-02-19T03:06:43.618Z,5.55
2023-02-19T03:09:13.028Z,5.57
2023-02-19T03:11:59.685Z,4.50
2023-02-19T03:14:49.555Z,4.95
2023-02-19T03:17:40.468Z,6.43
2023-02-19T03:20:09.527Z,5.72
2023-02-19T03:22:37.871Z,5.00
2023-02-19T03:25:25.919Z,4.65
2023-02-19T03:27:52.497Z,4.70
2023-02-19T03:30:24.214Z,3.58
2023-02-19T03:33:17.251Z,5.32
2023-02-19T03:35:46.367Z,4.78
2023-02-19T03:38:38.851Z,4.18
2023-02-19T03:41:27.403Z,4.10
2023-02-19T03:44:07.760Z,3.10
2023-02-19T03:46:37.885Z,4.13
2023-02-19T03:49:09.705Z,3.17
2023-02-19T03:51:37.955Z,4.25
2023-02-19T03:54:30.486Z,3.92
2023-02-19T03:57:00.510Z,3.65
2023-02-19T03:59:53.038Z,4.05
2023-02-19T04:02:27.066Z,3.85
2023-02-19T04:04:56.205Z,3.53
2023-02-19T04:07:23.749Z,3.63
2023-02-19T04:09:51.285Z,4.05
2023-02-19T04:12:19.188Z,5.50
2023-02-19T04:15:00.766Z,3.28
2023-02-19T04:17:29.682Z,4.22
2023-02-19T04:19:57.536Z,4.25
2023-02-19T04:22:24.564Z,3.60
2023-02-19T04:24:52.673Z,3.55
2023-02-19T04:27:19.081Z,6.30
2023-02-19T04:29:45.527Z,4.80
2023-02-19T04:32:12.521Z,4.85
2023-02-19T04:34:38.910Z,4.68
2023-02-19T04:37:05.707Z,3.90
2023-02-19T04:39:32.047Z,4.13
2023-02-19T04:41:58.363Z,4.60
2023-02-19T04:44:24.722Z,4.25
2023-02-19T04:46:51.107Z,4.35
2023-02-19T04:49:17.457Z,5.13
2023-02-19T04:51:43.865Z,3.90
2023-02-19T04:54:10.253Z,3.83
2023-02-19T04:56:37.886Z,3.55
2023-02-19T04:59:04.432Z,5.75
2023-02-19T05:01:30.891Z,3.85
2023-02-19T05:03:57.248Z,4.03
2023-02-19T05:06:23.645Z,3.10
2023-02-19T05:08:50.052Z,4.25
2023-02-19T05:11:16.576Z,4.85
2023-02-19T05:13:43.020Z,2.45
2023-02-19T05:16:15.791Z,2.67
2023-02-19T05:18:43.350Z,3.13
2023-02-19T05:21:10.628Z,2.35
2023-02-19T05:23:37.421Z,3.63
2023-02-19T05:26:07.872Z,3.75
2023-02-19T05:28:34.388Z,2.22
2023-02-19T05:31:06.632Z,2.72
2023-02-19T05:33:33.359Z,4.63
2023-02-19T05:35:59.894Z,3.55
2023-02-19T05:38:26.427Z,2.72
2023-02-19T05:40:52.927Z,4.60
2023-02-19T05:43:19.322Z,3.95
2023-02-19T05:45:45.680Z,2.47
2023-02-19T05:48:12.855Z,3.10
2023-02-19T05:50:39.991Z,4.80
2023-02-19T05:53:06.623Z,3.30
2023-02-19T05:55:36.195Z,2.17
2023-02-19T05:58:02.674Z,2.45
2023-02-19T06:00:29.095Z,4.38
2023-02-19T06:02:55.513Z,3.40
2023-02-19T06:05:21.872Z,2.47
2023-02-19T06:07:50.366Z,2.20
2023-02-19T06:10:17.007Z,3.20
2023-02-19T06:12:43.454Z,3.33
2023-02-19T06:15:09.934Z,3.22
2023-02-19T06:17:36.264Z,4.20
2023-02-19T06:20:02.862Z,3.03
2023-02-19T06:22:29.232Z,2.88
2023-02-19T06:24:55.691Z,4.47
2023-02-19T06:27:22.135Z,2.33
2023-02-19T06:29:48.491Z,4.82
2023-02-19T06:32:15.009Z,2.42
2023-02-19T06:34:41.452Z,3.00
2023-02-19T06:37:07.870Z,2.42
2023-02-19T06:39:34.279Z,2.35
2023-02-19T06:42:00.592Z,4.00
2023-02-19T06:44:26.996Z,3.63
2023-02-19T06:46:56.419Z,3.55
2023-02-19T06:49:22.830Z,2.42
2023-02-19T06:51:49.234Z,2.58
2023-02-19T06:54:15.577Z,1.30
2023-02-19T06:56:42.065Z,1.63
2023-02-19T06:59:10.639Z,1.85
2023-02-19T07:01:37.127Z,1.75
2023-02-19T07:04:04.210Z,1.30
2023-02-19T07:06:31.025Z,1.92
2023-02-19T07:08:58.663Z,1.80
2023-02-19T07:11:25.545Z,1.40
2023-02-19T07:13:56.393Z,1.33
2023-02-19T07:16:23.095Z,1.88
2023-02-19T07:18:49.583Z,2.97
2023-02-19T07:21:16.304Z,1.05
2023-02-19T07:23:42.930Z,1.63
2023-02-19T07:26:10.231Z,2.80
2023-02-19T07:28:36.543Z,1.17
2023-02-19T07:31:03.887Z,2.50
2023-02-19T07:33:30.688Z,1.30
2023-02-19T07:35:57.311Z,3.28
2023-02-19T07:38:24.407Z,1.85
2023-02-19T07:40:58.320Z,6.00
2023-02-19T07:43:25.246Z,3.88
2023-02-19T07:45:51.662Z,1.52
2023-02-19T07:48:18.270Z,2.42
2023-02-19T07:50:50.995Z,1.83
2023-02-19T07:53:17.329Z,3.25
2023-02-19T07:55:43.682Z,1.65
2023-02-19T07:58:12.165Z,1.95
2023-02-19T08:00:38.564Z,2.55
2023-02-19T08:03:05.124Z,2.00
2023-02-19T08:05:32.744Z,1.35
2023-02-19T08:07:59.476Z,1.27
2023-02-19T08:10:44.975Z,1.95
2023-02-19T08:13:22.531Z,0.98
2023-02-19T08:15:54.247Z,1.13
2023-02-19T08:18:25.599Z,5.80
2023-02-19T08:20:52.214Z,6.00
2023-02-19T08:23:20.705Z,4.68
2023-02-19T08:25:47.429Z,2.22
2023-02-19T08:28:13.833Z,2.67
2023-02-19T08:30:41.112Z,2.83
2023-02-19T08:33:08.237Z,2.85
2023-02-19T08:35:36.355Z,4.53
2023-02-19T08:38:03.247Z,3.17
2023-02-19T08:40:29.584Z,2.47
2023-02-19T08:42:55.927Z,2.10
2023-02-19T08:45:24.253Z,3.88
2023-02-19T08:47:50.710Z,5.22
2023-02-19T08:50:17.047Z,6.50
2023-02-19T08:52:43.429Z,10.82
2023-02-19T08:55:09.743Z,6.60
2023-02-19T08:57:37.689Z,23.30
2023-02-19T09:00:05.111Z,2.42
2023-02-19T09:02:31.483Z,4.40
2023-02-19T09:04:57.839Z,3.45
2023-02-19T09:07:24.266Z,3.28
2023-02-19T09:09:50.675Z,3.15
2023-02-19T09:12:16.999Z,3.28
2023-02-19T09:14:43.393Z,2.03
2023-02-19T09:17:10.145Z,2.95
2023-02-19T09:19:36.871Z,3.17
2023-02-19T09:22:04.218Z,5.63
2023-02-19T09:24:30.957Z,2.83
2023-02-19T09:26:57.496Z,2.60
2023-02-19T09:29:25.215Z,2.45
2023-02-19T09:31:51.751Z,2.58
2023-02-19T09:34:18.123Z,3.20
2023-02-19T09:36:44.496Z,4.60
2023-02-19T09:39:12.485Z,6.65
2023-02-19T09:41:49.531Z,3.03
2023-02-19T09:44:36.108Z,5.95
2023-02-19T09:47:06.035Z,1.95
2023-02-19T09:49:35.258Z,1.73
2023-02-19T09:52:18.680Z,3.65
2023-02-19T09:54:45.714Z,4.93
2023-02-19T09:57:16.446Z,5.25
2023-02-19T09:59:50.675Z,12.27
2023-02-19T10:02:16.979Z,12.52
2023-02-19T10:04:44.808Z,11.63
2023-02-19T10:07:15.419Z,9.23
2023-02-19T10:09:41.894Z,6.32
2023-02-19T10:12:14.243Z,7.95
2023-02-19T10:14:44.322Z,6.93
2023-02-19T10:17:13.752Z,9.23
2023-02-19T10:19:40.150Z,4.85
2023-02-19T10:22:07.359Z,8.88
2023-02-19T10:24:33.738Z,5.50
2023-02-19T10:27:00.162Z,3.80
2023-02-19T10:29:27.280Z,5.55
2023-02-19T10:32:12.749Z,12.43
2023-02-19T10:34:39.132Z,13.55
2023-02-19T10:37:09.372Z,20.02
2023-02-19T10:39:39.052Z,18.23
2023-02-19T10:42:05.518Z,5.32
2023-02-19T10:44:38.424Z,9.25
2023-02-19T10:47:05.708Z,13.48
2023-02-19T10:49:33.414Z,19.38
2023-02-19T10:52:02.470Z,13.55
2023-02-19T10:54:31.220Z,10.50
2023-02-19T10:57:34.513Z,6.45
2023-02-19T11:00:03.331Z,6.68
2023-02-19T11:02:30.510Z,8.80
2023-02-19T11:05:05.976Z,6.45
2023-02-19T11:09:59.386Z,5.18
2023-02-19T11:12:27.053Z,4.13
2023-02-19T11:14:53.670Z,4.70
2023-02-19T11:17:25.438Z,3.70
2023-02-19T11:19:53.481Z,5.25
2023-02-19T11:22:31.468Z,5.97
2023-02-19T11:25:02.745Z,3.35
2023-02-19T11:27:29.146Z,5.50
2023-02-19T11:29:55.914Z,3.72
2023-02-19T11:32:27.243Z,5.55
2023-02-19T11:35:14.150Z,5.93
2023-02-19T11:37:54.323Z,7.82
2023-02-19T11:40:23.212Z,3.55
2023-02-19T11:42:55.797Z,6.95
2023-02-19T11:45:22.156Z,3.95
2023-02-19T11:48:06.574Z,3.70
2023-02-19T11:50:36.455Z,3.03
2023-02-19T11:53:02.865Z,3.53
2023-02-19T11:55:48.009Z,1.52
2023-02-19T11:58:40.910Z,3.03
2023-02-19T12:01:25.999Z,4.50
2023-02-19T12:04:11.188Z,2.80
2023-02-19T12:06:43.796Z,3.90
2023-02-19T12:09:22.413Z,3.55
2023-02-19T12:11:55.547Z,6.28
2023-02-19T12:14:25.011Z,8.35
2023-02-19T12:16:58.392Z,9.27
2023-02-19T12:19:24.743Z,10.68
2023-02-19T12:22:05.968Z,4.82
2023-02-19T12:24:59.610Z,4.28
2023-02-19T12:27:45.447Z,2.13
2023-02-19T12:30:15.080Z,2.47
2023-02-19T12:32:47.419Z,4.97
2023-02-19T12:35:29.130Z,4.07
2023-02-19T12:37:58.647Z,3.22
2023-02-19T12:40:34.277Z,3.42
2023-02-19T12:45:38.686Z,4.10
2023-02-19T12:48:23.777Z,4.05
2023-02-19T12:50:52.794Z,4.93
2023-02-19T12:53:19.100Z,3.63
2023-02-19T12:55:46.156Z,3.25
2023-02-19T12:58:21.859Z,2.70
2023-02-19T13:00:50.645Z,5.72
2023-02-19T13:03:24.851Z,3.95
2023-02-19T13:05:55.776Z,6.70
2023-02-19T13:08:26.127Z,6.60
2023-02-19T13:11:00.662Z,10.35
2023-02-19T13:13:42.015Z,3.40
2023-02-19T13:16:15.114Z,4.28
2023-02-19T13:18:45.006Z,2.93
2023-02-19T13:21:12.683Z,4.28
2023-02-19T13:23:59.615Z,3.78
2023-02-19T13:26:32.031Z,3.42
2023-02-19T13:29:08.088Z,3.80
2023-02-19T13:31:34.498Z,4.55
2023-02-19T13:34:16.245Z,3.17
2023-02-19T13:36:42.668Z,2.92
2023-02-19T13:41:59.017Z,5.82
2023-02-19T13:44:32.671Z,7.88
2023-02-19T13:46:59.083Z,3.13
2023-02-19T13:49:28.219Z,1.27
2023-02-19T13:52:13.544Z,5.63
2023-02-19T13:54:40.337Z,5.13
2023-02-19T13:57:22.491Z,3.25
2023-02-19T13:59:58.308Z,2.63
2023-02-19T14:02:26.640Z,2.72
2023-02-19T14:05:03.579Z,5.38
2023-02-19T14:07:36.104Z,3.70
2023-02-19T14:10:02.864Z,2.08
2023-02-19T14:12:33.292Z,3.15
2023-02-19T14:15:19.586Z,5.97
2023-02-19T14:17:45.937Z,3.60
2023-02-19T14:20:15.161Z,4.82
2023-02-19T14:22:56.996Z,3.60
2023-02-19T14:25:23.374Z,2.58
2023-02-19T14:27:51.761Z,4.65
2023-02-19T14:30:18.584Z,5.63
2023-02-19T14:32:47.446Z,1.63
2023-02-19T14:35:21.094Z,5.22
2023-02-19T14:37:48.896Z,3.20
2023-02-19T14:40:21.605Z,2.35
2023-02-19T14:42:48.601Z,3.03
2023-02-19T14:45:15.989Z,2.33
2023-02-19T14:47:43.773Z,4.03
2023-02-19T14:50:20.344Z,2.05
2023-02-19T14:52:51.416Z,2.95
2023-02-19T14:55:24.976Z,2.50
2023-02-19T14:57:53.082Z,4.78
2023-02-19T15:00:22.382Z,4.22
2023-02-19T15:02:50.129Z,7.78
2023-02-19T15:05:23.403Z,3.88
2023-02-19T15:07:50.171Z,4.43
2023-02-19T15:10:16.600Z,9.23
2023-02-19T15:12:46.104Z,4.45
2023-02-19T15:15:17.130Z,4.47
2023-02-19T15:17:43.734Z,5.15
2023-02-19T15:20:12.256Z,2.60
2023-02-19T15:22:41.270Z,6.03
2023-02-19T15:25:08.182Z,4.68
2023-02-19T15:27:35.456Z,4.80
2023-02-19T15:30:01.816Z,5.63
2023-02-19T15:32:28.385Z,7.53
2023-02-19T15:34:56.029Z,5.20
2023-02-19T15:37:23.535Z,4.93
2023-02-19T15:39:50.756Z,2.58
2023-02-19T15:42:21.360Z,7.72
2023-02-19T15:45:01.303Z,9.43
2023-02-19T15:47:50.242Z,5.85
2023-02-19T15:50:17.104Z,4.45
2023-02-19T15:52:43.485Z,4.72
2023-02-19T15:55:22.324Z,7.47
2023-02-19T15:58:09.104Z,4.15
2023-02-19T16:00:39.335Z,5.40
2023-02-19T16:03:06.687Z,6.53
2023-02-19T16:05:39.355Z,5.97
2023-02-19T16:08:26.000Z,8.80
2023-02-19T16:10:57.104Z,10.90
2023-02-19T16:13:24.812Z,8.88
2023-02-19T16:16:06.713Z,9.57
2023-02-19T16:18:33.418Z,13.20
2023-02-19T16:20:59.933Z,8.75
2023-02-19T16:23:27.362Z,9.05
2023-02-19T16:26:01.060Z,10.85
2023-02-19T16:28:29.531Z,9.05
2023-02-19T16:31:00.248Z,9.63
2023-02-19T16:33:26.577Z,9.82
2023-02-19T16:35:53.014Z,8.27
2023-02-19T16:38:20.056Z,4.15
2023-02-19T16:40:49.271Z,5.82
2023-02-19T16:43:15.712Z,7.03
2023-02-19T16:45:45.505Z,7.05
2023-02-19T16:48:14.850Z,6.43
2023-02-19T16:50:46.209Z,5.60
2023-02-19T16:53:24.896Z,7.93
2023-02-19T16:55:52.163Z,7.57
2023-02-19T16:58:18.644Z,6.18
2023-02-19T17:00:45.082Z,8.63
2023-02-19T17:03:14.024Z,7.20
2023-02-19T17:05:40.761Z,10.30
2023-02-19T17:08:25.750Z,7.05
2023-02-19T17:10:52.128Z,6.20
2023-02-19T17:13:18.442Z,4.93
2023-02-19T17:15:44.881Z,9.23
2023-02-19T17:18:11.979Z,9.50
2023-02-19T17:20:38.730Z,6.80
2023-02-19T17:23:05.074Z,6.55
2023-02-19T17:25:31.442Z,9.93
2023-02-19T17:27:57.798Z,12.43
2023-02-19T17:30:28.523Z,9.27
2023-02-19T17:32:55.021Z,13.98
2023-02-19T17:35:21.570Z,12.65
2023-02-19T17:37:47.967Z,13.57
2023-02-19T17:40:32.665Z,11.32
2023-02-19T17:43:00.152Z,14.50
2023-02-19T17:45:26.501Z,9.95
2023-02-19T17:47:53.165Z,12.32
2023-02-19T17:50:23.926Z,11.57
2023-02-19T17:52:50.306Z,11.27
2023-02-19T17:55:18.357Z,15.02
2023-02-19T17:57:45.189Z,18.08
2023-02-19T18:00:13.775Z,7.05
2023-02-19T18:02:40.173Z,16.95
2023-02-19T18:05:06.767Z,13.80
2023-02-19T18:07:33.184Z,10.82
2023-02-19T18:09:59.554Z,10.10
2023-02-19T18:12:25.948Z,16.08
2023-02-19T18:14:54.617Z,11.43
2023-02-19T18:17:20.984Z,9.43
2023-02-19T18:19:47.486Z,10.65
2023-02-19T18:22:13.996Z,10.00
2023-02-19T18:24:45.141Z,9.20
2023-02-19T18:27:11.470Z,10.60
2023-02-19T18:29:37.828Z,8.75
2023-02-19T18:32:04.213Z,10.90
2023-02-19T18:34:30.961Z,11.70
2023-02-19T18:36:57.292Z,11.00
2023-02-19T18:39:23.632Z,10.35
2023-02-19T18:41:51.023Z,12.98
2023-02-19T18:44:19.004Z,11.20
2023-02-19T18:46:45.407Z,7.22
2023-02-19T18:49:11.941Z,12.93
2023-02-19T18:51:38.236Z,7.53
2023-02-19T18:54:04.595Z,7.07
2023-02-19T18:56:31.083Z,8.45
2023-02-19T18:58:59.936Z,10.23
2023-02-19T19:01:26.294Z,7.85
2023-02-19T19:03:52.727Z,7.95
2023-02-19T19:06:19.144Z,7.82
2023-02-19T19:08:45.541Z,11.32
2023-02-19T19:11:12.094Z,6.78
2023-02-19T19:13:38.688Z,6.18
2023-02-19T19:16:05.174Z,7.50
2023-02-19T19:18:31.711Z,8.88
2023-02-19T19:21:03.204Z,7.97
2023-02-19T19:23:29.510Z,6.43
2023-02-19T19:25:57.082Z,9.73
2023-02-19T19:28:23.520Z,8.02
2023-02-19T19:30:49.923Z,6.55
2023-02-19T19:33:17.692Z,10.23
2023-02-19T19:35:44.253Z,12.20
2023-02-19T19:38:10.663Z,8.75
2023-02-19T19:40:37.276Z,8.57
2023-02-19T19:43:03.652Z,12.38
2023-02-19T19:45:30.050Z,6.22
2023-02-19T19:47:56.441Z,6.38
2023-02-19T19:50:22.747Z,6.28
2023-02-19T19:52:49.109Z,6.43
2023-02-19T19:55:16.601Z,10.68
2023-02-19T19:57:43.003Z,7.13
2023-02-19T20:00:12.585Z,9.73
2023-02-19T20:02:39.145Z,8.57
2023-02-19T20:05:06.151Z,7.97
2023-02-19T20:07:32.560Z,8.00
2023-02-19T20:09:58.928Z,10.68
2023-02-19T20:12:25.268Z,11.43
2023-02-19T20:14:51.632Z,10.05
2023-02-19T20:17:18.040Z,8.40
2023-02-19T20:19:45.281Z,10.98
2023-02-19T20:22:12.246Z,12.73
2023-02-19T20:24:38.621Z,10.77
2023-02-19T20:27:04.935Z,9.40
2023-02-19T20:29:33.074Z,11.25
2023-02-19T20:32:00.526Z,9.98
2023-02-19T20:34:27.067Z,11.50
2023-02-19T20:36:53.546Z,12.70
2023-02-19T20:39:20.583Z,11.52
2023-02-19T20:41:47.842Z,12.23
2023-02-19T20:44:14.665Z,10.35
2023-02-19T20:46:45.119Z,17.83
2023-02-19T20:49:12.143Z,16.95
2023-02-19T20:51:48.775Z,21.33
2023-02-19T20:54:16.622Z,20.00
2023-02-19T20:56:44.230Z,23.67
2023-02-19T20:59:10.809Z,22.33
2023-02-19T21:01:39.453Z,21.27
2023-02-19T21:04:07.631Z,17.75
2023-02-19T21:06:33.973Z,16.80
2023-02-19T21:09:00.469Z,20.98
2023-02-19T21:11:26.841Z,15.27
2023-02-19T21:13:53.196Z,17.10
2023-02-19T21:16:19.899Z,19.77
2023-02-19T21:18:46.239Z,17.23
2023-02-19T21:21:12.630Z,20.58
2023-02-19T21:23:40.314Z,20.65
2023-02-19T21:26:06.774Z,16.27
2023-02-19T21:28:33.162Z,22.63
2023-02-19T21:30:59.562Z,22.15
2023-02-19T21:33:25.990Z,21.10
2023-02-19T21:35:52.311Z,21.77
2023-02-19T21:38:18.619Z,23.50
2023-02-19T21:40:45.063Z,19.85
2023-02-19T21:43:12.817Z,19.70
2023-02-19T21:45:39.328Z,20.55
2023-02-19T21:48:07.520Z,18.13
2023-02-19T21:50:33.918Z,17.27
2023-02-19T21:53:01.329Z,22.17
2023-02-19T21:55:28.741Z,25.58
2023-02-19T21:57:55.080Z,19.90
2023-02-19T22:00:21.511Z,22.02
2023-02-19T22:02:47.963Z,19.83
2023-02-19T22:05:14.313Z,21.60
2023-02-19T22:07:41.748Z,23.40
2023-02-19T22:10:08.996Z,20.20
2023-02-19T22:12:35.397Z,20.38
2023-02-19T22:15:01.756Z,21.63
2023-02-19T22:17:28.090Z,21.05
2023-02-19T22:19:54.532Z,13.77
2023-02-19T22:22:20.943Z,14.98
2023-02-19T22:24:47.298Z,15.75
2023-02-19T22:27:13.665Z,18.08
2023-02-19T22:29:40.022Z,16.63
2023-02-19T22:32:07.038Z,15.55
2023-02-19T22:34:37.458Z,13.80
2023-02-19T22:37:03.855Z,10.75
2023-02-19T22:39:30.283Z,11.73
2023-02-19T22:41:56.629Z,13.75
2023-02-19T22:44:23.150Z,14.27
2023-02-19T22:46:53.722Z,12.32
2023-02-19T22:49:20.615Z,10.48
2023-02-19T22:51:58.554Z,9.35
2023-02-19T22:54:27.017Z,9.50
2023-02-19T22:56:54.263Z,11.30
2023-02-19T22:59:21.174Z,10.32
2023-02-19T23:01:48.059Z,12.50
2023-02-19T23:04:14.633Z,11.52
2023-02-19T23:06:43.065Z,10.52
2023-02-19T23:09:13.713Z,9.55
2023-02-19T23:11:40.178Z,14.40
2023-02-19T23:14:07.169Z,8.07
2023-02-19T23:16:35.935Z,8.98
2023-02-19T23:19:03.162Z,8.45
2023-02-19T23:21:29.571Z,11.50
2023-02-19T23:23:55.943Z,9.50
2023-02-19T23:26:22.600Z,13.10
2023-02-19T23:28:49.344Z,11.20
2023-02-19T23:31:15.920Z,9.63
2023-02-19T23:33:43.069Z,10.10
2023-02-19T23:36:09.996Z,12.40
2023-02-19T23:38:36.565Z,10.02
2023-02-19T23:41:03.429Z,10.57
2023-02-19T23:43:29.828Z,12.40
2023-02-19T23:45:56.230Z,11.73
2023-02-19T23:48:22.746Z,12.90
2023-02-19T23:50:49.085Z,12.85
2023-02-19T23:53:15.538Z,10.45
2023-02-19T23:55:42.011Z,14.20
2023-02-19T23:58:08.428Z,15.43
